createdAt,value
2019-04-04T00:04:08.874Z,35.6
2019-04-04T00:09:08.820Z,35.2
2019-04-04T00:14:08.799Z,35.2
2019-04-04T00:19:08.820Z,34.9
2019-04-04T00:24:09.868Z,34.7
2019-04-04T00:29:08.783Z,35
2019-04-04T00:34:08.811Z,34.6
2019-04-04T00:39:10.153Z,34.6
2019-04-04T00:44:08.799Z,34.6
2019-04-04T00:49:08.799Z,34.5
2019-04-04T00:54:08.768Z,34.4
2019-04-04T00:59:08.800Z,34.6
2019-04-04T01:04:08.782Z,34.7
2019-04-04T01:09:14.056Z,35
2019-04-04T01:14:08.785Z,35.1
2019-04-04T01:19:10.580Z,35.2
2019-04-04T01:24:08.754Z,35
2019-04-04T01:29:11.307Z,34.8
2019-04-04T01:34:08.740Z,34.9
2019-04-04T01:39:08.714Z,34.8
2019-04-04T01:44:11.919Z,34.8
2019-04-04T01:49:08.760Z,35
2019-04-04T01:54:08.759Z,34.9
2019-04-04T01:59:13.138Z,34.9
2019-04-04T02:04:08.677Z,34.8
2019-04-04T02:09:08.698Z,34.9
2019-04-04T02:14:12.653Z,34.8
2019-04-04T02:19:08.718Z,34.8
2019-04-04T02:24:08.684Z,34.7
2019-04-04T02:29:11.858Z,34.7
2019-04-04T02:34:08.704Z,34.2
2019-04-04T02:39:08.714Z,33.7
2019-04-04T02:44:08.674Z,33.7
2019-04-04T02:49:08.701Z,33.9
2019-04-04T02:54:08.795Z,34
2019-04-04T02:59:08.680Z,34
2019-04-04T03:04:08.668Z,34
2019-04-04T03:09:10.854Z,33.9
2019-04-04T03:14:08.656Z,33.9
2019-04-04T03:19:11.561Z,33.9
2019-04-04T03:24:08.734Z,33.2
2019-04-04T03:29:11.199Z,33.8
2019-04-04T03:34:13.685Z,33.8
2019-04-04T03:39:08.589Z,33.8
2019-04-04T03:44:08.589Z,33.7
2019-04-04T03:49:08.791Z,33.7
2019-04-04T03:54:08.638Z,33.8
2019-04-04T03:59:08.597Z,33.6
2019-04-04T04:04:08.685Z,33.5
2019-04-04T04:09:08.587Z,33.6
2019-04-04T04:14:08.574Z,33.6
2019-04-04T04:19:08.607Z,33.5
2019-04-04T04:24:08.574Z,33.5
2019-04-04T04:29:08.529Z,33.1
2019-04-04T04:34:08.572Z,32.3
2019-04-04T04:39:08.554Z,32.4
2019-04-04T04:44:08.595Z,33.2
2019-04-04T04:49:08.585Z,33.3
2019-04-04T04:54:08.564Z,33.3
2019-04-04T04:59:14.114Z,33.1
2019-04-04T05:04:08.571Z,33.1
2019-04-04T05:09:08.539Z,33
2019-04-04T05:14:08.478Z,33.2
2019-04-04T05:19:08.490Z,33.2
2019-04-04T05:24:08.570Z,33.3
2019-04-04T05:29:08.529Z,33.5
2019-04-04T05:34:08.504Z,33.4
2019-04-04T05:39:08.521Z,33.6
2019-04-04T05:44:10.553Z,34.2
2019-04-04T05:49:08.829Z,35
2019-04-04T05:54:08.660Z,34.6
2019-04-04T05:59:08.585Z,35.4
2019-04-04T06:04:08.514Z,35
2019-04-04T06:09:08.547Z,34.7
2019-04-04T06:14:08.465Z,34.4
2019-04-04T06:19:08.445Z,34.3
2019-04-04T06:24:08.406Z,34.3
2019-04-04T06:29:08.407Z,34.3
2019-04-04T06:34:11.083Z,33.6
2019-04-04T06:39:08.425Z,33.4
2019-04-04T06:44:08.399Z,33.3
2019-04-04T06:49:08.412Z,32.5
2019-04-04T06:54:08.407Z,31.8
2019-04-04T06:59:12.794Z,31.4
2019-04-04T07:04:08.403Z,31.4
2019-04-04T07:09:08.410Z,30.8
2019-04-04T07:14:08.391Z,30.5
2019-04-04T07:19:08.613Z,31.1
2019-04-04T07:24:08.358Z,30.3
2019-04-04T07:29:08.367Z,30.1
2019-04-04T07:34:08.378Z,30
2019-04-04T07:39:08.412Z,29.9
2019-04-04T07:44:08.365Z,29.8
2019-04-04T07:49:08.360Z,29.6
2019-04-04T07:54:08.489Z,29.6
2019-04-04T07:59:08.336Z,29.9
2019-04-04T08:04:08.352Z,29.7
2019-04-04T08:09:08.326Z,29.4
2019-04-04T08:14:08.319Z,29.6
2019-04-04T08:19:08.343Z,30
2019-04-04T08:24:08.315Z,29.3
2019-04-04T08:29:08.308Z,29.3
2019-04-04T08:34:08.338Z,29.6
2019-04-04T08:39:09.509Z,29.1
2019-04-04T08:44:08.281Z,29.3
2019-04-04T08:49:08.258Z,29.1
2019-04-04T08:54:08.303Z,29
2019-04-04T08:59:08.281Z,29.3
2019-04-04T09:04:08.245Z,28.7
2019-04-04T09:09:08.271Z,29.1
2019-04-04T09:14:08.288Z,28.8
2019-04-04T09:19:08.253Z,28.9
2019-04-04T09:24:08.310Z,28.7
2019-04-04T09:29:08.273Z,28.8
2019-04-04T09:34:08.258Z,28.6
2019-04-04T09:39:08.206Z,28.6
2019-04-04T09:44:08.207Z,28.6
2019-04-04T09:49:08.226Z,28.5
2019-04-04T09:54:08.232Z,28.5
2019-04-04T09:59:11.261Z,28.6
2019-04-04T10:04:08.231Z,28.1
2019-04-04T10:09:17.257Z,29
2019-04-04T10:14:08.227Z,28.2
2019-04-04T10:19:08.198Z,28.4
2019-04-04T10:24:08.160Z,28.2
2019-04-04T10:29:08.243Z,28
2019-04-04T10:34:08.142Z,27.7
2019-04-04T10:39:08.157Z,27.5
2019-04-04T10:44:08.259Z,27.5
2019-04-04T10:53:12.025Z,27.3
2019-04-04T10:58:12.077Z,27
2019-04-04T11:03:16.371Z,26.9
2019-04-04T11:08:12.062Z,26.7
2019-04-04T11:13:12.174Z,26.1
2019-04-04T11:18:12.569Z,26.4
2019-04-04T11:23:12.320Z,26.6
2019-04-04T11:28:12.056Z,26.2
2019-04-04T11:33:12.478Z,26.2
2019-04-04T11:38:13.181Z,25.8
2019-04-04T11:43:12.082Z,26
2019-04-04T11:48:12.132Z,25.6
2019-04-04T11:53:12.005Z,25.6
2019-04-04T11:58:11.982Z,25.2
2019-04-04T12:03:12.019Z,24.7
2019-04-04T12:08:12.882Z,24.4
2019-04-04T12:13:12.784Z,23.9
2019-04-04T12:18:12.869Z,23.5
2019-04-04T12:23:12.775Z,23.2
2019-04-04T12:28:12.741Z,22.9
2019-04-04T12:33:12.728Z,21.6
2019-04-04T12:38:12.805Z,20
2019-04-04T12:43:12.746Z,18.8
2019-04-04T12:48:12.765Z,18.3
2019-04-04T12:53:12.804Z,17.7
2019-04-04T12:58:12.773Z,17.5
2019-04-04T13:03:12.730Z,17.3
2019-04-04T13:08:12.776Z,17.5
2019-04-04T13:13:12.738Z,17.8
2019-04-04T13:18:12.691Z,18.7
2019-04-04T13:23:12.772Z,19.3
2019-04-04T13:28:12.681Z,19.7
2019-04-04T13:33:12.754Z,20.2
2019-04-04T13:38:12.703Z,20.2
2019-04-04T13:43:12.678Z,20.3
2019-04-04T13:48:13.480Z,20.3
2019-04-04T13:53:12.739Z,20.5
2019-04-04T13:58:12.657Z,21.5
2019-04-04T14:03:12.721Z,22
2019-04-04T14:08:14.719Z,22.4
2019-04-04T14:13:14.987Z,22.8
2019-04-04T14:18:12.658Z,23.4
2019-04-04T14:23:12.644Z,23.8
2019-04-04T14:28:12.670Z,24
2019-04-04T14:33:12.635Z,24.2
2019-04-04T14:38:12.649Z,24.4
2019-04-04T14:43:12.650Z,24.5
2019-04-04T14:48:12.641Z,24.7
2019-04-04T14:53:12.647Z,24.4
2019-04-04T14:58:12.594Z,25
2019-04-04T15:03:12.624Z,25.3
2019-04-04T15:08:12.628Z,25.3
2019-04-04T15:13:12.615Z,25.3
2019-04-04T15:18:12.625Z,24.9
2019-04-04T15:23:13.399Z,25.4
2019-04-04T15:28:13.367Z,25.4
2019-04-04T15:33:13.403Z,25.4
2019-04-04T15:38:13.377Z,25.5
2019-04-04T15:43:13.380Z,25.6
2019-04-04T15:48:13.327Z,25.7
2019-04-04T15:53:17.953Z,25.6
2019-04-04T15:58:14.546Z,28.4
2019-04-04T16:03:13.322Z,34.4
2019-04-04T16:08:13.364Z,36.7
2019-04-04T16:13:13.347Z,37.5
2019-04-04T16:18:13.329Z,34.6
2019-04-04T16:23:13.366Z,30.4
2019-04-04T16:28:13.307Z,28
2019-04-04T16:33:18.221Z,27
2019-04-04T16:38:13.340Z,26.2
2019-04-04T16:43:13.303Z,25.9
2019-04-04T16:48:14.297Z,25.8
2019-04-04T16:53:13.287Z,26.3
2019-04-04T16:58:14.127Z,26.1
2019-04-04T17:03:14.080Z,26.2
2019-04-04T17:08:14.055Z,26.2
2019-04-04T17:13:14.056Z,26.2
2019-04-04T17:18:14.003Z,26.2
2019-04-04T17:23:14.019Z,26.2
2019-04-04T17:28:14.608Z,26.1
2019-04-04T17:33:14.035Z,26.1
2019-04-04T17:38:13.991Z,26
2019-04-04T17:43:14.038Z,26
2019-04-04T17:48:14.250Z,26
2019-04-04T17:53:14.482Z,26
2019-04-04T17:58:14.015Z,25.9
2019-04-04T18:03:13.989Z,26
2019-04-04T18:08:14.013Z,25.9
2019-04-04T18:13:13.987Z,25.8
2019-04-04T18:18:13.979Z,25.9
2019-04-04T18:23:15.420Z,25.9
2019-04-04T18:28:14.010Z,26
2019-04-04T18:33:14.093Z,25.7
2019-04-04T18:38:13.990Z,26
2019-04-04T18:43:13.979Z,25.7
2019-04-04T18:48:13.933Z,26.2
2019-04-04T18:53:13.918Z,25.8
2019-04-04T18:58:13.973Z,26.4
2019-04-04T19:03:13.922Z,25.9
2019-04-04T19:08:13.914Z,25.9
2019-04-04T19:13:14.098Z,25.9
2019-04-04T19:18:13.919Z,25.9
2019-04-04T19:23:13.896Z,25.9
2019-04-04T19:40:45.737Z,25.8
2019-04-04T19:45:45.691Z,25.8
2019-04-04T19:50:45.648Z,25.9
2019-04-04T19:55:45.702Z,28.2
2019-04-04T20:00:45.638Z,28.4
2019-04-04T20:05:45.634Z,27.6
2019-04-04T20:10:45.693Z,27.4
2019-04-04T20:15:45.608Z,27.2
2019-04-04T20:20:45.607Z,27.1
2019-04-04T20:25:45.638Z,26.9
2019-04-04T20:30:45.737Z,26.9
2019-04-04T20:35:45.621Z,26.9
2019-04-04T20:40:45.655Z,26.7
2019-04-04T20:45:45.588Z,26.9
2019-04-04T20:50:45.674Z,26.9
2019-04-04T20:55:45.600Z,26.8
2019-04-04T21:00:45.605Z,26.8
2019-04-04T21:05:45.573Z,26.8
2019-04-04T21:10:45.595Z,26.7
2019-04-04T21:15:45.580Z,26.7
2019-04-04T21:20:45.537Z,26.8
2019-04-04T21:25:45.571Z,26.9
2019-04-04T21:30:45.603Z,26.8
2019-04-04T21:35:45.862Z,26.8
2019-04-04T21:40:45.655Z,26.8
2019-04-04T21:45:45.599Z,26.7
2019-04-04T21:50:47.872Z,26.7
2019-04-04T21:55:45.554Z,26.7
2019-04-04T22:00:45.520Z,26.8
2019-04-04T22:05:45.561Z,26.7
2019-04-04T22:10:45.521Z,26.7
2019-04-04T22:15:45.523Z,26.7
2019-04-04T22:20:45.537Z,26.7
2019-04-04T22:25:45.492Z,26.8
2019-04-04T22:30:45.509Z,26.8
2019-04-04T22:35:45.562Z,26.9
2019-04-04T22:40:45.469Z,26.8
2019-04-04T22:45:45.470Z,26.9
2019-04-04T22:50:45.475Z,26.9
2019-04-04T22:55:45.481Z,27
2019-04-04T23:00:45.458Z,27.1
2019-04-04T23:05:45.530Z,27.2
2019-04-04T23:10:45.468Z,27.2
2019-04-04T23:15:45.463Z,27.4
2019-04-04T23:20:45.425Z,27.5
2019-04-04T23:25:45.437Z,27.6
2019-04-04T23:30:45.476Z,27.5
2019-04-04T23:35:45.430Z,27.7
2019-04-04T23:40:45.402Z,27.6
2019-04-04T23:45:45.405Z,27.7
2019-04-04T23:50:45.469Z,27.8
2019-04-04T23:55:45.418Z,27.8
